createdAt,value
2022-08-24T00:01:29.309Z,74.02
2022-08-24T00:04:01.380Z,74.34
2022-08-24T00:06:29.804Z,74.37
2022-08-24T00:08:59.262Z,74.40
2022-08-24T00:11:27.847Z,74.67
2022-08-24T00:13:55.680Z,74.73
2022-08-24T00:16:24.148Z,74.80
2022-08-24T00:18:51.834Z,74.92
2022-08-24T00:21:20.390Z,75.17
2022-08-24T00:23:50.558Z,75.43
2022-08-24T00:26:28.599Z,75.46
2022-08-24T00:28:57.205Z,75.50
2022-08-24T00:31:24.986Z,75.47
2022-08-24T00:33:52.706Z,75.63
2022-08-24T00:36:22.727Z,75.89
2022-08-24T00:38:50.796Z,76.29
2022-08-24T00:41:18.575Z,76.04
2022-08-24T00:43:59.352Z,76.13
2022-08-24T00:46:46.442Z,76.54
2022-08-24T00:49:34.758Z,76.76
2022-08-24T00:52:09.545Z,76.96
2022-08-24T00:54:46.122Z,76.95
2022-08-24T00:57:19.217Z,76.97
2022-08-24T00:59:53.554Z,77.04
2022-08-24T01:02:33.556Z,77.49
2022-08-24T01:05:04.991Z,77.92
2022-08-24T01:07:34.349Z,77.86
2022-08-24T01:10:06.581Z,77.68
2022-08-24T01:12:37.335Z,77.86
2022-08-24T01:15:07.865Z,77.99
2022-08-24T01:17:56.219Z,77.99
2022-08-24T01:20:27.353Z,78.20
2022-08-24T01:23:11.932Z,78.23
2022-08-24T01:25:43.114Z,78.97
2022-08-24T01:28:23.776Z,78.85
2022-08-24T01:30:55.838Z,79.74
2022-08-24T01:33:27.346Z,79.45
2022-08-24T01:36:10.681Z,80.02
2022-08-24T01:38:38.420Z,80.95
2022-08-24T01:41:06.300Z,80.61
2022-08-24T01:43:36.935Z,80.69
2022-08-24T01:46:05.433Z,80.96
2022-08-24T01:48:33.221Z,81.21
2022-08-24T01:51:01.150Z,81.68
2022-08-24T01:53:29.231Z,81.54
2022-08-24T01:55:56.963Z,81.96
2022-08-24T01:58:25.754Z,82.17
2022-08-24T02:00:53.437Z,82.39
2022-08-24T02:03:21.565Z,82.41
2022-08-24T02:05:57.199Z,82.41
2022-08-24T02:08:24.864Z,82.28
2022-08-24T02:10:56.460Z,82.34
2022-08-24T02:13:24.876Z,82.12
2022-08-24T02:15:52.636Z,82.20
2022-08-24T02:18:20.652Z,82.07
2022-08-24T02:20:48.337Z,82.16
2022-08-24T02:23:16.036Z,82.22
2022-08-24T02:25:43.740Z,82.26
2022-08-24T02:28:11.575Z,82.39
2022-08-24T02:30:41.341Z,82.66
2022-08-24T02:33:09.430Z,82.63
2022-08-24T02:35:37.356Z,82.78
2022-08-24T02:38:05.198Z,82.81
2022-08-24T02:40:33.475Z,83.16
2022-08-24T02:43:01.117Z,83.16
2022-08-24T02:45:28.956Z,83.08
2022-08-24T02:47:56.654Z,83.18
2022-08-24T02:50:24.697Z,83.41
2022-08-24T02:52:52.397Z,83.60
2022-08-24T02:55:20.690Z,83.66
2022-08-24T02:57:49.421Z,83.86
2022-08-24T03:00:20.094Z,83.91
2022-08-24T03:02:47.901Z,84.08
2022-08-24T03:05:16.465Z,84.10
2022-08-24T03:07:44.879Z,84.33
2022-08-24T03:10:12.875Z,84.53
2022-08-24T03:12:40.878Z,84.67
2022-08-24T03:15:12.464Z,84.65
2022-08-24T03:17:41.120Z,85.27
2022-08-24T03:20:14.959Z,85.18
2022-08-24T03:22:43.420Z,85.59
2022-08-24T03:25:12.423Z,85.54
2022-08-24T03:27:40.646Z,85.74
2022-08-24T03:30:11.418Z,85.91
2022-08-24T03:32:39.824Z,86.04
2022-08-24T03:35:08.529Z,86.21
2022-08-24T03:37:36.209Z,86.10
2022-08-24T03:40:04.705Z,86.05
2022-08-24T03:42:33.185Z,86.00
2022-08-24T03:45:01.011Z,86.15
2022-08-24T03:47:28.742Z,86.46
2022-08-24T03:49:57.410Z,86.50
2022-08-24T03:52:25.151Z,86.41
2022-08-24T03:54:53.877Z,86.68
2022-08-24T03:57:21.583Z,86.64
2022-08-24T03:59:49.308Z,86.66
2022-08-24T04:02:17.043Z,86.77
2022-08-24T04:04:44.857Z,86.79
2022-08-24T04:07:12.706Z,86.61
2022-08-24T04:09:40.425Z,86.78
2022-08-24T04:12:08.269Z,86.76
2022-08-24T04:14:36.437Z,86.83
2022-08-24T04:17:05.637Z,86.94
2022-08-24T04:19:34.750Z,87.01
2022-08-24T04:22:02.465Z,87.15
2022-08-24T04:24:30.489Z,87.10
2022-08-24T04:26:58.202Z,87.51
2022-08-24T04:29:26.680Z,87.36
2022-08-24T04:31:54.634Z,87.46
2022-08-24T04:34:22.529Z,87.31
2022-08-24T04:36:50.253Z,87.42
2022-08-24T04:39:17.934Z,87.50
2022-08-24T04:41:45.650Z,87.81
2022-08-24T04:44:14.059Z,88.36
2022-08-24T04:46:41.825Z,88.61
2022-08-24T04:49:09.633Z,88.91
2022-08-24T04:51:37.707Z,88.92
2022-08-24T04:54:07.434Z,89.25
2022-08-24T04:56:36.081Z,89.72
2022-08-24T04:59:05.860Z,89.92
2022-08-24T05:01:34.753Z,89.86
2022-08-24T05:04:02.811Z,89.42
2022-08-24T05:06:33.658Z,89.38
2022-08-24T05:09:03.211Z,89.46
2022-08-24T05:11:31.099Z,89.48
2022-08-24T05:13:59.169Z,89.52
2022-08-24T05:16:30.504Z,89.34
2022-08-24T05:18:59.517Z,89.11
2022-08-24T05:21:29.434Z,88.98
2022-08-24T05:23:57.138Z,88.75
2022-08-24T05:26:27.929Z,88.42
2022-08-24T05:28:57.786Z,88.25
2022-08-24T05:31:28.834Z,88.03
2022-08-24T05:33:56.767Z,88.08
2022-08-24T05:36:33.761Z,88.13
2022-08-24T05:39:10.995Z,88.37
2022-08-24T05:41:44.035Z,88.48
2022-08-24T05:44:17.004Z,88.27
2022-08-24T05:46:45.814Z,88.18
2022-08-24T05:49:13.844Z,88.36
2022-08-24T05:51:43.734Z,88.34
2022-08-24T05:54:14.719Z,88.28
2022-08-24T05:56:42.876Z,88.32
2022-08-24T05:59:10.698Z,88.51
2022-08-24T06:01:43.365Z,88.41
2022-08-24T06:04:13.984Z,88.73
2022-08-24T06:06:43.206Z,88.43
2022-08-24T06:09:12.897Z,88.24
2022-08-24T06:11:41.971Z,88.02
2022-08-24T06:14:12.612Z,87.72
2022-08-24T06:16:43.758Z,87.54
2022-08-24T06:19:14.431Z,87.48
2022-08-24T06:21:42.842Z,87.54
2022-08-24T06:24:10.742Z,87.53
2022-08-24T06:26:56.980Z,87.29
2022-08-24T06:29:24.684Z,87.38
2022-08-24T06:31:54.830Z,87.26
2022-08-24T06:34:26.656Z,87.24
2022-08-24T06:36:54.303Z,87.16
2022-08-24T06:39:22.087Z,86.88
2022-08-24T06:41:49.790Z,86.92
2022-08-24T06:44:17.606Z,86.76
2022-08-24T06:46:45.436Z,86.59
2022-08-24T06:49:13.389Z,86.33
2022-08-24T06:51:41.154Z,85.77
2022-08-24T06:54:09.641Z,85.49
2022-08-24T06:56:39.185Z,85.20
2022-08-24T06:59:07.293Z,84.34
2022-08-24T07:01:35.161Z,83.86
2022-08-24T07:04:03.027Z,82.71
2022-08-24T07:06:30.834Z,81.54
2022-08-24T07:08:58.556Z,80.52
2022-08-24T07:11:26.663Z,79.52
2022-08-24T07:13:54.397Z,78.86
2022-08-24T07:16:22.653Z,78.34
2022-08-24T07:18:50.746Z,77.74
2022-08-24T07:21:20.551Z,76.95
2022-08-24T07:23:56.207Z,76.16
2022-08-24T07:26:26.650Z,75.29
2022-08-24T07:29:02.196Z,74.71
2022-08-24T07:31:34.709Z,74.17
2022-08-24T07:34:04.709Z,73.20
2022-08-24T07:36:32.566Z,71.99
2022-08-24T07:39:00.398Z,71.06
2022-08-24T07:44:16.743Z,69.88
2022-08-24T07:46:44.749Z,69.51
2022-08-24T07:49:33.023Z,69.09
2022-08-24T07:52:01.853Z,68.55
2022-08-24T07:54:32.644Z,68.51
2022-08-24T07:57:03.294Z,68.11
2022-08-24T07:59:31.227Z,67.44
2022-08-24T08:02:00.285Z,67.23
2022-08-24T08:04:28.155Z,66.88
2022-08-24T08:09:29.129Z,66.09
2022-08-24T08:11:56.894Z,65.63
2022-08-24T08:14:24.601Z,65.30
2022-08-24T08:16:52.523Z,64.69
2022-08-24T08:19:20.552Z,64.37
2022-08-24T08:22:10.239Z,64.12
2022-08-24T08:24:44.801Z,63.68
2022-08-24T08:27:14.020Z,62.86
2022-08-24T08:29:42.074Z,63.01
2022-08-24T08:32:13.236Z,62.83
2022-08-24T08:34:40.938Z,62.63
2022-08-24T08:37:08.846Z,62.49
2022-08-24T08:39:37.006Z,62.47
2022-08-24T08:42:26.333Z,61.94
2022-08-24T08:45:37.223Z,61.01
2022-08-24T08:48:19.837Z,61.36
2022-08-24T08:51:26.617Z,61.24
2022-08-24T08:54:06.314Z,60.38
2022-08-24T08:56:58.583Z,60.13
2022-08-24T08:59:39.971Z,60.12
2022-08-24T09:02:35.706Z,60.05
2022-08-24T09:07:47.353Z,59.39
2022-08-24T09:10:42.032Z,59.38
2022-08-24T09:13:31.550Z,59.01
2022-08-24T09:15:59.837Z,58.30
2022-08-24T09:18:42.785Z,58.60
2022-08-24T09:21:10.881Z,57.66
2022-08-24T09:23:55.176Z,57.90
2022-08-24T09:26:27.031Z,57.55
2022-08-24T09:29:13.419Z,57.29
2022-08-24T09:31:59.425Z,57.16
2022-08-24T09:34:27.030Z,57.43
2022-08-24T09:36:56.822Z,57.64
2022-08-24T09:39:57.869Z,57.38
2022-08-24T09:42:50.364Z,56.81
2022-08-24T09:45:38.581Z,57.43
2022-08-24T09:48:41.328Z,56.61
2022-08-24T09:51:44.922Z,56.73
2022-08-24T09:54:48.551Z,56.29
2022-08-24T09:57:50.404Z,56.03
2022-08-24T10:00:28.681Z,56.23
2022-08-24T10:03:00.551Z,56.21
2022-08-24T10:05:49.690Z,55.75
2022-08-24T10:08:40.761Z,55.80
2022-08-24T10:11:13.334Z,54.92
2022-08-24T10:14:08.082Z,55.11
2022-08-24T10:16:50.827Z,54.70
2022-08-24T10:20:13.616Z,54.23
2022-08-24T10:22:53.228Z,53.45
2022-08-24T10:25:42.011Z,53.79
2022-08-24T10:28:38.893Z,53.42
2022-08-24T10:31:28.206Z,51.92
2022-08-24T10:34:31.316Z,52.13
2022-08-24T10:37:17.297Z,50.97
2022-08-24T10:40:15.974Z,51.63
2022-08-24T10:43:29.641Z,50.73
2022-08-24T10:46:00.194Z,50.29
2022-08-24T10:48:33.377Z,50.90
2022-08-24T10:51:44.249Z,50.71
2022-08-24T10:54:14.351Z,49.09
2022-08-24T10:57:11.909Z,49.57
2022-08-24T10:59:56.793Z,48.75
2022-08-24T11:02:30.604Z,48.16
2022-08-24T11:05:03.060Z,47.98
2022-08-24T11:07:30.850Z,48.03
2022-08-24T11:10:01.154Z,48.08
2022-08-24T11:12:37.706Z,47.35
2022-08-24T11:15:23.273Z,46.73
2022-08-24T11:18:05.174Z,46.14
2022-08-24T11:20:34.841Z,46.40
2022-08-24T11:23:18.996Z,46.12
2022-08-24T11:26:05.084Z,45.07
2022-08-24T11:28:58.644Z,44.24
2022-08-24T11:31:35.578Z,44.07
2022-08-24T11:34:14.886Z,44.28
2022-08-24T11:36:43.400Z,43.35
2022-08-24T11:39:25.120Z,43.29
2022-08-24T11:42:15.837Z,42.29
2022-08-24T11:45:10.784Z,41.05
2022-08-24T11:48:05.422Z,41.58
2022-08-24T11:50:42.074Z,41.60
2022-08-24T11:53:15.081Z,41.12
2022-08-24T11:56:05.698Z,40.13
2022-08-24T11:58:59.282Z,39.77
2022-08-24T12:01:52.439Z,39.52
2022-08-24T12:04:26.067Z,40.09
2022-08-24T12:07:11.823Z,40.29
2022-08-24T12:09:48.009Z,40.58
2022-08-24T12:12:36.453Z,39.46
2022-08-24T12:15:13.215Z,38.47
2022-08-24T12:17:56.926Z,38.50
2022-08-24T12:20:33.517Z,38.16
2022-08-24T12:23:18.215Z,38.99
2022-08-24T12:26:02.963Z,38.90
2022-08-24T12:28:45.351Z,38.69
2022-08-24T12:31:44.827Z,38.62
2022-08-24T12:34:19.939Z,38.74
2022-08-24T12:37:16.181Z,38.66
2022-08-24T12:39:53.346Z,38.57
2022-08-24T12:42:35.298Z,39.12
2022-08-24T12:45:12.692Z,37.31
2022-08-24T12:47:52.161Z,38.17
2022-08-24T12:50:36.505Z,37.81
2022-08-24T12:53:04.349Z,37.99
2022-08-24T12:55:52.534Z,38.31
2022-08-24T12:58:57.451Z,37.62
2022-08-24T13:01:29.596Z,37.67
2022-08-24T13:04:09.288Z,37.76
2022-08-24T13:07:06.017Z,38.13
2022-08-24T13:09:46.083Z,38.58
2022-08-24T13:12:34.936Z,38.66
2022-08-24T13:15:24.482Z,37.64
2022-08-24T13:18:00.232Z,37.46
2022-08-24T13:20:52.475Z,37.94
2022-08-24T13:23:22.288Z,37.91
2022-08-24T13:25:52.465Z,38.18
2022-08-24T13:28:22.963Z,38.10
2022-08-24T13:31:18.497Z,38.36
2022-08-24T13:34:05.324Z,38.24
2022-08-24T13:36:33.521Z,38.57
2022-08-24T13:39:21.688Z,38.88
2022-08-24T13:42:13.748Z,38.91
2022-08-24T13:44:47.527Z,39.30
2022-08-24T13:47:18.190Z,39.52
2022-08-24T13:50:03.248Z,39.73
2022-08-24T13:53:01.353Z,39.68
2022-08-24T13:55:46.210Z,39.71
2022-08-24T13:58:35.946Z,39.49
2022-08-24T14:01:06.599Z,39.49
2022-08-24T14:03:57.405Z,39.61
2022-08-24T14:07:01.504Z,39.29
2022-08-24T14:09:49.661Z,39.55
2022-08-24T14:12:26.538Z,39.95
2022-08-24T14:15:20.557Z,39.72
2022-08-24T14:18:00.433Z,39.72
2022-08-24T14:20:49.943Z,39.73
2022-08-24T14:23:46.084Z,39.49
2022-08-24T14:26:39.342Z,39.62
2022-08-24T14:29:38.002Z,40.02
2022-08-24T14:32:08.678Z,40.04
2022-08-24T14:34:43.092Z,40.32
2022-08-24T14:37:19.697Z,40.25
2022-08-24T14:39:56.199Z,39.97
2022-08-24T14:42:47.268Z,39.98
2022-08-24T14:45:39.066Z,40.04
2022-08-24T14:48:18.761Z,39.95
2022-08-24T14:51:11.489Z,39.99
2022-08-24T14:54:08.749Z,40.57
2022-08-24T14:57:19.356Z,40.92
2022-08-24T15:00:13.523Z,40.81
2022-08-24T15:02:56.305Z,40.68
2022-08-24T15:05:33.010Z,40.88
2022-08-24T15:08:16.254Z,41.32
2022-08-24T15:11:16.431Z,41.75
2022-08-24T15:13:56.226Z,41.69
2022-08-24T15:16:35.079Z,41.40
2022-08-24T15:19:23.018Z,41.51
2022-08-24T15:22:16.121Z,41.67
2022-08-24T15:24:53.490Z,41.69
2022-08-24T15:27:52.204Z,42.01
2022-08-24T15:30:29.081Z,42.27
2022-08-24T15:33:20.175Z,42.16
2022-08-24T15:36:04.389Z,42.38
2022-08-24T15:38:33.709Z,42.34
2022-08-24T15:41:09.923Z,42.21
2022-08-24T15:44:01.010Z,41.82
2022-08-24T15:46:46.766Z,42.31
2022-08-24T15:49:23.177Z,42.37
2022-08-24T15:52:03.423Z,42.43
2022-08-24T15:54:59.168Z,42.24
2022-08-24T15:57:28.783Z,42.55
2022-08-24T16:00:09.247Z,42.39
2022-08-24T16:02:39.714Z,41.84
2022-08-24T16:05:14.435Z,41.77
2022-08-24T16:08:05.477Z,40.87
2022-08-24T16:10:45.236Z,40.98
2022-08-24T16:13:18.844Z,41.17
2022-08-24T16:16:16.304Z,41.20
2022-08-24T16:18:53.698Z,41.89
2022-08-24T16:21:40.673Z,41.73
2022-08-24T16:24:13.717Z,41.86
2022-08-24T16:26:47.416Z,42.07
2022-08-24T16:29:38.849Z,42.57
2022-08-24T16:32:22.979Z,42.50
2022-08-24T16:35:02.257Z,42.55
2022-08-24T16:37:30.017Z,42.73
2022-08-24T16:39:57.656Z,42.69
2022-08-24T16:42:28.491Z,42.68
2022-08-24T16:44:57.488Z,43.08
2022-08-24T16:47:26.109Z,43.41
2022-08-24T16:49:53.839Z,43.70
2022-08-24T16:52:22.220Z,43.75
2022-08-24T16:54:50.435Z,43.76
2022-08-24T16:57:29.122Z,43.71
2022-08-24T16:59:57.024Z,44.50
2022-08-24T17:02:26.786Z,44.26
2022-08-24T17:04:55.772Z,44.40
2022-08-24T17:07:27.380Z,44.64
2022-08-24T17:09:56.127Z,44.93
2022-08-24T17:12:25.082Z,45.03
2022-08-24T17:14:52.833Z,45.14
2022-08-24T17:17:23.265Z,45.23
2022-08-24T17:19:54.494Z,45.48
2022-08-24T17:22:24.259Z,45.76
2022-08-24T17:24:52.301Z,46.00
2022-08-24T17:27:23.963Z,46.11
2022-08-24T17:29:51.829Z,46.34
2022-08-24T17:32:19.624Z,46.49
2022-08-24T17:34:47.418Z,46.64
2022-08-24T17:37:15.202Z,46.85
2022-08-24T17:39:42.901Z,47.12
2022-08-24T17:42:33.647Z,47.35
2022-08-24T17:44:58.381Z,47.54
2022-08-24T17:47:26.216Z,47.69
2022-08-24T17:49:53.944Z,47.91
2022-08-24T17:52:21.698Z,48.03
2022-08-24T17:54:49.470Z,48.28
2022-08-24T17:57:17.295Z,48.55
2022-08-24T17:59:45.828Z,48.73
2022-08-24T18:02:13.696Z,48.76
2022-08-24T18:04:41.990Z,48.77
2022-08-24T18:07:13.615Z,48.88
2022-08-24T18:09:49.524Z,48.98
2022-08-24T18:12:20.174Z,49.10
2022-08-24T18:14:47.986Z,49.11
2022-08-24T18:17:22.704Z,49.14
2022-08-24T18:19:53.663Z,49.28
2022-08-24T18:22:21.554Z,49.38
2022-08-24T18:24:49.255Z,49.45
2022-08-24T18:27:25.781Z,49.55
2022-08-24T18:30:00.183Z,49.79
2022-08-24T18:32:31.199Z,49.80
2022-08-24T18:35:00.023Z,49.95
2022-08-24T18:37:27.672Z,50.25
2022-08-24T18:39:55.448Z,50.65
2022-08-24T18:42:26.423Z,51.39
2022-08-24T18:44:55.414Z,52.32
2022-08-24T18:47:23.143Z,52.81
2022-08-24T18:49:50.890Z,53.24
2022-08-24T18:52:20.089Z,53.54
2022-08-24T18:54:50.212Z,53.96
2022-08-24T18:57:19.584Z,54.29
2022-08-24T18:59:47.909Z,54.31
2022-08-24T19:02:32.308Z,54.47
2022-08-24T19:05:12.548Z,55.16
2022-08-24T19:07:42.805Z,55.45
2022-08-24T19:10:11.952Z,55.00
2022-08-24T19:12:55.981Z,54.96
2022-08-24T19:15:35.829Z,55.32
2022-08-24T19:18:07.740Z,55.13
2022-08-24T19:20:36.652Z,55.11
2022-08-24T19:23:15.603Z,55.23
2022-08-24T19:25:46.337Z,55.33
2022-08-24T19:28:14.534Z,55.17
2022-08-24T19:30:43.500Z,55.17
2022-08-24T19:33:14.348Z,55.10
2022-08-24T19:35:42.753Z,54.89
2022-08-24T19:38:10.462Z,54.80
2022-08-24T19:40:39.171Z,54.77
2022-08-24T19:43:08.511Z,54.53
2022-08-24T19:45:56.365Z,54.50
2022-08-24T19:48:25.575Z,54.33
2022-08-24T19:50:57.429Z,54.43
2022-08-24T19:53:26.606Z,54.49
2022-08-24T19:55:54.252Z,54.54
2022-08-24T19:58:30.530Z,54.91
2022-08-24T20:01:03.866Z,55.24
2022-08-24T20:03:31.606Z,55.43
2022-08-24T20:05:59.347Z,55.74
2022-08-24T20:08:27.021Z,56.12
2022-08-24T20:10:59.696Z,56.25
2022-08-24T20:13:27.925Z,56.55
2022-08-24T20:15:57.536Z,56.87
2022-08-24T20:18:31.785Z,57.34
2022-08-24T20:20:59.905Z,58.03
2022-08-24T20:23:28.518Z,58.07
2022-08-24T20:25:58.736Z,58.47
2022-08-24T20:28:38.172Z,58.84
2022-08-24T20:31:06.632Z,59.53
2022-08-24T20:33:34.385Z,59.27
2022-08-24T20:36:02.238Z,59.53
2022-08-24T20:38:31.895Z,60.14
2022-08-24T20:41:00.707Z,60.15
2022-08-24T20:43:29.410Z,60.14
2022-08-24T20:45:57.636Z,60.98
2022-08-24T20:48:31.469Z,61.31
2022-08-24T20:51:00.948Z,61.22
2022-08-24T20:53:28.709Z,61.07
2022-08-24T20:55:58.387Z,61.16
2022-08-24T20:58:26.623Z,61.49
2022-08-24T21:00:54.399Z,61.58
2022-08-24T21:03:22.490Z,61.94
2022-08-24T21:05:53.424Z,62.27
2022-08-24T21:08:21.277Z,62.39
2022-08-24T21:10:49.536Z,62.23
2022-08-24T21:13:17.342Z,62.32
2022-08-24T21:15:45.593Z,62.36
2022-08-24T21:18:13.327Z,62.38
2022-08-24T21:20:54.717Z,62.53
2022-08-24T21:23:31.269Z,62.96
2022-08-24T21:25:59.767Z,62.76
2022-08-24T21:28:27.600Z,62.81
2022-08-24T21:30:55.391Z,63.14
2022-08-24T21:33:41.775Z,63.50
2022-08-24T21:36:10.042Z,63.58
2022-08-24T21:38:38.205Z,63.81
2022-08-24T21:41:06.910Z,63.80
2022-08-24T21:43:34.839Z,64.13
2022-08-24T21:46:02.574Z,64.32
2022-08-24T21:48:30.250Z,64.61
2022-08-24T21:50:57.921Z,64.80
2022-08-24T21:53:28.475Z,65.04
2022-08-24T21:55:57.077Z,65.14
2022-08-24T21:58:25.456Z,65.44
2022-08-24T22:00:53.269Z,65.22
2022-08-24T22:03:26.728Z,65.53
2022-08-24T22:05:59.635Z,65.45
2022-08-24T22:08:28.008Z,65.60
2022-08-24T22:10:56.512Z,65.58
2022-08-24T22:13:24.175Z,65.72
2022-08-24T22:15:52.361Z,65.67
2022-08-24T22:18:20.083Z,65.74
2022-08-24T22:20:47.850Z,65.84
2022-08-24T22:23:15.600Z,66.22
2022-08-24T22:25:43.323Z,66.44
2022-08-24T22:28:11.223Z,66.55
2022-08-24T22:30:38.890Z,66.76
2022-08-24T22:33:07.074Z,66.97
2022-08-24T22:35:44.755Z,67.30
2022-08-24T22:38:13.624Z,67.43
2022-08-24T22:40:44.144Z,67.47
2022-08-24T22:43:13.318Z,67.60
2022-08-24T22:45:41.025Z,67.91
2022-08-24T22:48:08.733Z,68.18
2022-08-24T22:50:36.477Z,68.51
2022-08-24T22:53:04.757Z,68.49
2022-08-24T22:55:33.660Z,68.65
2022-08-24T22:58:01.411Z,68.80
2022-08-24T23:00:29.082Z,68.85
2022-08-24T23:02:56.737Z,69.04
2022-08-24T23:05:24.487Z,69.14
2022-08-24T23:07:52.165Z,69.28
2022-08-24T23:10:21.264Z,69.45
2022-08-24T23:12:49.059Z,69.53
2022-08-24T23:15:16.853Z,69.81
2022-08-24T23:17:44.727Z,69.90
2022-08-24T23:20:12.689Z,70.19
2022-08-24T23:22:41.874Z,70.46
2022-08-24T23:25:12.745Z,70.74
2022-08-24T23:27:42.946Z,70.91
2022-08-24T23:30:14.868Z,71.05
2022-08-24T23:32:44.122Z,71.15
2022-08-24T23:35:11.957Z,71.14
2022-08-24T23:37:39.803Z,71.30
2022-08-24T23:40:08.268Z,71.51
2022-08-24T23:42:36.037Z,71.69
2022-08-24T23:45:03.843Z,71.82
2022-08-24T23:47:35.913Z,72.02
2022-08-24T23:50:03.898Z,72.21
2022-08-24T23:52:40.300Z,72.35
2022-08-24T23:55:20.063Z,72.35
2022-08-24T23:57:48.495Z,72.43
